Terminal Aerodrome Forecast
Issued by NWS Cleveland, OH

Home | Current Version | Previous Version | Text Only | Print | Product List | Glossary Off
Versions: 1 2 3 4 5 6 7 8 9 10 11 12 13 14 15 16 17 18 19

160
FTUS41 KCLE 211739
TAFMFD
TAF
KMFD 211739Z 2118/2218 VRB03KT P6SM SCT035 BKN080
     FM212100 33005KT P6SM SCT200
     FM220600 VRB03KT 5SM BR SCT250
     FM221100 VRB03KT 4SM BR VCSH BKN100
     FM221300 19007KT 3SM SHRA VCTS OVC025CB=

USA.gov is the U.S. government's official web portal to all federal, state and local government web resources and services.